Le Boreal — FLSY — position and weather

sailwx.info

Track history (hours):
 
Tides and Currents Weather Stations Pressure Air Temp Water Temp Dewpoint Dewpoint Depression Visibility Wind Speed Wind Dir Waves Ship Positions

Le Boreal

Last reported at 2017-Jun-23 20:30 UTC. Time now 2017-Jun-23 20:37 UTC.
Position N 61°56' E 005°07'.

Length 140 m; draft 5 m.

Type: Passenger vessel. MMSI: 578000500.

Date/timePositionNaut miles runAvg speedWind from/ knotsBaromVisibWave heightAir tempDewpointWater temp
2017-Jun-23 20:30N 61°56' E 005°07'5 9.1
2017-Jun-23 20:00N 61°54' E 005°16'612.7
2017-Jun-23 19:30N 61°55' E 005°29'713.0
2017-Jun-23 19:00N 61°53' E 005°43'1 0.1
2017-Jun-23 05:39N 61°54' E 005°41'1 9.6
2017-Jun-23 05:30N 61°54' E 005°38'5 9.6
2017-Jun-23 05:00N 61°55' E 005°28'5 9.1
2017-Jun-23 04:30N 61°54' E 005°19'4 8.4
2017-Jun-23 04:01N 61°53' E 005°10'4 7.3
2017-Jun-23 03:30N 61°50' E 005°16'510.0
2017-Jun-23 03:00N 61°48' E 005°07'510.1
2017-Jun-23 02:30N 61°44' E 004°59'5 9.5
2017-Jun-23 02:00N 61°39' E 004°59'5 9.1
2017-Jun-23 01:30N 61°35' E 004°57'4 8.6
2017-Jun-23 01:00N 61°31' E 005°00'4 8.9
2017-Jun-23 00:30N 61°27' E 004°56'5 9.6
2017-Jun-23 00:00N 61°23' E 004°50'5 9.7
2017-Jun-22 23:30N 61°18' E 004°48'5 9.3
2017-Jun-22 23:00N 61°15' E 004°54'5 9.6
2017-Jun-22 22:30N 61°11' E 005°01'510.0
2017-Jun-22 22:00N 61°08' E 005°08'4 8.7
2017-Jun-22 21:30N 61°04' E 005°02'5 9.4
2017-Jun-22 21:00N 61°02' E 004°54'5 9.7
2017-Jun-22 20:30N 60°59' E 004°46'611.8
2017-Jun-22 20:00N 60°54' E 004°41'612.4
2017-Jun-22 19:30N 60°48' E 004°44'612.8
2017-Jun-22 19:01N 60°42' E 004°50'712.9
2017-Jun-22 18:30N 60°36' E 004°54'713.0
2017-Jun-22 18:00N 60°30' E 004°59'612.6
2017-Jun-22 17:30N 60°25' E 005°06'510.1
2017-Jun-22 17:00N 60°24' E 005°16'1 2.5
2017-Jun-22 16:30N 60°24' E 005°19'0 0.0
2017-Jun-22 16:00N 60°24' E 005°19'0 0.0
2017-Jun-22 15:27N 60°24' E 005°19'0 0.0
2017-Jun-22 15:00N 60°24' E 005°19'0 0.0
2017-Jun-22 14:27N 60°24' E 005°19'0 0.0
2017-Jun-22 13:30N 60°24' E 005°19'0 0.0
2017-Jun-22 13:00N 60°24' E 005°19'0 0.0
2017-Jun-22 12:30N 60°24' E 005°19'0 0.0
2017-Jun-22 12:00N 60°24' E 005°19'0 0.0
2017-Jun-22 11:30N 60°24' E 005°19'0 0.0
2017-Jun-22 11:00N 60°24' E 005°19'0 0.0
2017-Jun-22 10:27N 60°24' E 005°19'0 0.0
2017-Jun-22 10:00N 60°24' E 005°19'0 0.0
2017-Jun-22 09:30N 60°24' E 005°19'0 0.0
2017-Jun-22 09:00N 60°24' E 005°19'0 0.0
2017-Jun-22 08:30N 60°24' E 005°19'0 0.0
2017-Jun-22 08:00N 60°24' E 005°19'0 0.0
2017-Jun-22 07:30N 60°24' E 005°19'0 0.0
2017-Jun-22 07:00N 60°24' E 005°19'0 0.0
2017-Jun-22 06:30N 60°24' E 005°19'0 0.0
2017-Jun-22 06:00N 60°24' E 005°19'0 0.5
2017-Jun-22 05:30N 60°24' E 005°18'3 6.5
2017-Jun-22 05:00N 60°23' E 005°12'5 9.6
2017-Jun-22 04:30N 60°18' E 005°12'612.5
2017-Jun-22 04:00N 60°12' E 005°11'611.4
2017-Jun-22 03:30N 60°09' E 005°02'4 8.2
2017-Jun-22 03:00N 60°06' E 004°55'510.2
2017-Jun-22 02:30N 60°01' E 004°52'510.1
2017-Jun-22 02:00N 59°57' E 004°49'510.0
2017-Jun-22 01:30N 59°52' E 004°45'510.1
2017-Jun-22 01:00N 59°47' E 004°41'67 9.7
2017-Jun-21 18:03N 58°40' E 004°50'111.5
2017-Jun-21 18:00N 58°40' E 004°51'611.6
2017-Jun-21 17:30N 58°36' E 004°58'612.0
2017-Jun-21 17:00N 58°31' E 005°06'1112.0
2017-Jun-21 16:07N 58°23' E 005°20'112.1
2017-Jun-21 16:00N 58°22' E 005°22'611.8
2017-Jun-21 15:30N 58°18' E 005°30'611.7
2017-Jun-21 15:00N 58°15' E 005°38'611.7
2017-Jun-21 14:30N 58°11' E 005°47'1311.5
2017-Jun-21 13:23N 58°03' E 006°06'511.6
2017-Jun-21 13:00N 57°60' E 006°12'511.0
2017-Jun-21 12:30N 57°56' E 006°20'510.5
2017-Jun-21 12:00N 57°53' E 006°27'510.5
2017-Jun-21 11:30N 57°50' E 006°35'510.5
2017-Jun-21 11:00N 57°49' E 006°45'510.7
2017-Jun-21 10:30N 57°48' E 006°55'11411.8
2017-Jun-21 00:48N 57°49' E 010°29'412.6
2017-Jun-21 00:30N 57°49' E 010°36'611.4
2017-Jun-21 00:00N 57°47' E 010°47'713.4
2017-Jun-20 23:30N 57°41' E 010°47'714.1
2017-Jun-20 23:00N 57°34' E 010°45'714.5
2017-Jun-20 22:30N 57°26' E 010°44'31 7.7
2017-Jun-20 18:24N 56°59' E 010°15'612.4
2017-Jun-20 17:57N 57°02' E 010°07'511.1
2017-Jun-20 17:31N 57°05' E 009°59'3 5.2
2017-Jun-20 17:00N 57°03' E 009°55'0 0.0
2017-Jun-20 16:29N 57°03' E 009°55'0 0.0
2017-Jun-20 15:47N 57°03' E 009°55'0 0.0
2017-Jun-20 15:23N 57°03' E 009°55'0 0.0
2017-Jun-20 14:59N 57°03' E 009°55'0 0.0
2017-Jun-20 14:23N 57°03' E 009°55'0 0.0
2017-Jun-20 13:29N 57°03' E 009°55'0 0.0
2017-Jun-20 12:53N 57°03' E 009°55'0 0.0
2017-Jun-20 12:29N 57°03' E 009°55'0 0.0
2017-Jun-20 11:53N 57°03' E 009°55'0 0.0
2017-Jun-20 11:29N 57°03' E 009°55'0 0.0
2017-Jun-20 11:00N 57°03' E 009°55'1 2.2
2017-Jun-20 10:30N 57°03' E 009°57'4 7.3
2017-Jun-20 10:00N 57°03' E 010°04'612.5
2017-Jun-20 09:29N 56°59' E 010°13'87 9.0
2017-Jun-19 23:51N 56°11' E 012°24'310.0
2017-Jun-19 23:30N 56°09' E 012°29'611.1
2017-Jun-19 23:00N 56°05' E 012°37'713.8
2017-Jun-19 22:30N 55°59' E 012°42'714.1
2017-Jun-19 22:01N 55°52' E 012°45'713.4
2017-Jun-19 21:30N 55°46' E 012°41'4 8.9
2017-Jun-19 21:00N 55°42' E 012°36'1 1.2
2017-Jun-19 20:30N 55°41' E 012°36'0 0.0
2017-Jun-19 19:59N 55°41' E 012°36'0 0.0
2017-Jun-19 19:29N 55°41' E 012°36'0 0.0
2017-Jun-19 18:59N 55°41' E 012°36'0 0.0
2017-Jun-19 18:29N 55°41' E 012°36'0 0.0
2017-Jun-19 17:59N 55°41' E 012°36'0 0.0
2017-Jun-19 17:29N 55°41' E 012°36'0 0.0
2017-Jun-19 16:59N 55°41' E 012°36'0 0.0
2017-Jun-19 16:29N 55°41' E 012°36'0 0.0
2017-Jun-19 15:59N 55°41' E 012°36'0 0.0
2017-Jun-19 15:29N 55°41' E 012°36'0 0.0
2017-Jun-19 14:59N 55°41' E 012°36'0 0.0
2017-Jun-19 13:59N 55°41' E 012°36'0 0.0
2017-Jun-19 13:29N 55°41' E 012°36'0 0.0
2017-Jun-19 12:59N 55°41' E 012°36'0 0.0
2017-Jun-19 12:29N 55°41' E 012°36'0 0.0
2017-Jun-19 11:59N 55°41' E 012°36'0 0.0
2017-Jun-19 11:29N 55°41' E 012°36'0 0.0
2017-Jun-19 10:59N 55°41' E 012°36'0 0.0
2017-Jun-19 10:29N 55°41' E 012°36'0 0.0
2017-Jun-19 09:59N 55°41' E 012°36'0 0.0
2017-Jun-19 09:29N 55°41' E 012°36'0 0.0
2017-Jun-19 08:59N 55°41' E 012°36'0 1.0
2017-Jun-19 08:30N 55°42' E 012°36'2 3.9
2017-Jun-19 08:00N 55°43' E 012°39'5 9.1
2017-Jun-19 07:30N 55°39' E 012°42'612.3
2017-Jun-19 07:00N 55°33' E 012°43'612.9
2017-Jun-19 06:30N 55°26' E 012°42'713.6
2017-Jun-19 06:00N 55°20' E 012°41'612.3
2017-Jun-19 05:30N 55°16' E 012°50'713.2
2017-Jun-19 05:00N 55°15' E 013°01'713.2
2017-Jun-19 04:30N 55°15' E 013°13'613.1
2017-Jun-19 04:00N 55°15' E 013°24'713.1
2017-Jun-19 03:30N 55°14' E 013°36'714.7
2017-Jun-19 03:00N 55°14' E 013°49'815.2
2017-Jun-19 02:30N 55°13' E 014°02'815.3
2017-Jun-19 02:01N 55°14' E 014°15'815.0
2017-Jun-19 01:31N 55°19' E 014°25'815.2
2017-Jun-19 01:00N 55°25' E 014°34'815.1
2017-Jun-19 00:30N 55°29' E 014°45'815.4
2017-Jun-19 00:00N 55°33' E 014°56'815.3
2017-Jun-18 23:30N 55°37' E 015°08'715.0
2017-Jun-18 23:01N 55°40' E 015°20'714.8
2017-Jun-18 22:31N 55°44' E 015°31'815.0
2017-Jun-18 22:01N 55°48' E 015°43'815.1
2017-Jun-18 21:31N 55°52' E 015°54'714.9
2017-Jun-18 21:00N 55°56' E 016°05'714.9
2017-Jun-18 20:30N 55°60' E 016°16'715.0
2017-Jun-18 20:00N 56°04' E 016°28'815.2
2017-Jun-18 19:31N 56°08' E 016°39'714.8
2017-Jun-18 19:00N 56°14' E 016°47'98 8.0
2017-Jun-18 06:49N 57°38' E 018°17'0 0.5
2017-Jun-18 06:30N 57°38' E 018°17'1 1.9
2017-Jun-18 06:01N 57°38' E 018°15'4 8.1
2017-Jun-18 05:30N 57°42' E 018°17'611.1
2017-Jun-18 04:57N 57°48' E 018°21'5311.8
2017-Jun-18 00:28N 58°38' E 018°54'612.6
2017-Jun-18 00:00N 58°43' E 018°57'612.3
2017-Jun-17 23:30N 58°49' E 019°01'612.3
2017-Jun-17 23:00N 58°55' E 019°05'612.4
2017-Jun-17 22:31N 59°01' E 019°09'612.5
2017-Jun-17 22:01N 59°07' E 019°12'611.5
2017-Jun-17 21:30N 59°12' E 019°10'712.2
2017-Jun-17 20:58N 59°16' E 018°60'2110.8
2017-Jun-17 19:01N 59°26' E 018°24'011.2
2017-Jun-17 19:00N 59°26' E 018°24'5 9.8
2017-Jun-17 18:30N 59°21' E 018°26'5 9.5
2017-Jun-17 18:00N 59°22' E 018°17'510.6
2017-Jun-17 17:30N 59°19' E 018°08'1 2.2
2017-Jun-17 16:55N 59°19' E 018°05'0 0.0
2017-Jun-17 16:25N 59°19' E 018°05'0 0.0
2017-Jun-17 15:55N 59°19' E 018°05'0 0.0
2017-Jun-17 15:13N 59°19' E 018°05'0 0.0
2017-Jun-17 14:55N 59°19' E 018°05'0 0.0
2017-Jun-17 13:58N 59°19' E 018°05'0 0.0
2017-Jun-17 13:25N 59°19' E 018°05'0 0.0
2017-Jun-17 12:58N 59°19' E 018°05'0 0.0
2017-Jun-17 12:25N 59°19' E 018°05'0 0.0
2017-Jun-17 11:55N 59°19' E 018°05'0 0.0
2017-Jun-17 11:25N 59°19' E 018°05'0 0.0
2017-Jun-17 10:55N 59°19' E 018°05'0 0.0
2017-Jun-17 10:25N 59°19' E 018°05'0 0.0
2017-Jun-17 09:55N 59°19' E 018°05'0 0.0
2017-Jun-17 09:25N 59°19' E 018°05'0 0.0
2017-Jun-17 08:58N 59°19' E 018°05'0 0.0
2017-Jun-17 08:19N 59°19' E 018°05'0 0.0
2017-Jun-17 07:55N 59°19' E 018°05'0 0.0
2017-Jun-17 07:25N 59°19' E 018°05'0 0.0
2017-Jun-17 06:55N 59°19' E 018°05'0 0.0
2017-Jun-17 06:25N 59°19' E 018°05'0 0.0
2017-Jun-17 05:55N 59°19' E 018°05'0 0.0
2017-Jun-17 05:25N 59°19' E 018°05'0 0.0
2017-Jun-17 04:49N 59°19' E 018°05'0 0.3
2017-Jun-17 04:30N 59°19' E 018°05'3 5.3
2017-Jun-17 04:00N 59°19' E 018°11'510.5
2017-Jun-17 03:30N 59°23' E 018°19'4 8.2
2017-Jun-17 03:00N 59°23' E 018°27'4 8.1
2017-Jun-17 02:31N 59°27' E 018°25'611.5
2017-Jun-17 02:01N 59°23' E 018°34'611.5
2017-Jun-17 01:31N 59°22' E 018°45'510.7
2017-Jun-17 01:01N 59°18' E 018°52'4 7.1
2017-Jun-17 00:31N 59°16' E 018°58'510.5
2017-Jun-17 00:01N 59°13' E 019°06'713.3
2017-Jun-16 23:30N 59°09' E 019°17'5 9.6
2017-Jun-16 23:00N 59°04' E 019°17'612.8
2017-Jun-16 22:31N 59°00' E 019°08'713.4
2017-Jun-16 21:59N 58°54' E 019°04'713.4
2017-Jun-16 21:29N 58°47' E 018°60'613.3
2017-Jun-16 21:00N 58°41' E 018°56'714.2
2017-Jun-16 20:31N 58°35' E 018°51'32 2.3
2017-Jun-16 06:22N 58°02' E 018°53'615.5
2017-Jun-16 06:00N 58°04' E 019°03'915.2
2017-Jun-16 05:26N 58°08' E 019°18'715.3
2017-Jun-16 04:57N 58°12' E 019°28'815.5
2017-Jun-16 04:26N 58°18' E 019°40'715.3
2017-Jun-16 04:00N 58°22' E 019°50'815.5
2017-Jun-16 03:30N 58°27' E 020°01'815.5
2017-Jun-16 03:00N 58°32' E 020°12'815.6
2017-Jun-16 02:30N 58°37' E 020°24'815.6
2017-Jun-16 02:00N 58°42' E 020°35'815.6
2017-Jun-16 01:30N 58°47' E 020°47'815.3
2017-Jun-16 01:00N 58°52' E 020°58'815.1
2017-Jun-16 00:30N 58°57' E 021°09'815.4
2017-Jun-16 00:01N 59°01' E 021°21'815.3
2017-Jun-15 23:30N 59°06' E 021°32'815.3
2017-Jun-15 23:00N 59°11' E 021°44'815.3
2017-Jun-15 22:30N 59°16' E 021°55'815.1
2017-Jun-15 22:00N 59°20' E 022°07'815.1
2017-Jun-15 21:30N 59°25' E 022°20'815.3
2017-Jun-15 21:01N 59°29' E 022°32'815.5
2017-Jun-15 20:30N 59°31' E 022°46'815.4
2017-Jun-15 20:01N 59°34' E 023°01'815.2
2017-Jun-15 19:30N 59°36' E 023°15'815.4
2017-Jun-15 19:00N 59°39' E 023°29'815.2
2017-Jun-15 18:31N 59°41' E 023°44'815.1
2017-Jun-15 18:00N 59°43' E 023°58'815.1
2017-Jun-15 17:30N 59°46' E 024°12'815.1
2017-Jun-15 17:00N 59°48' E 024°27'815.2
2017-Jun-15 16:30N 59°51' E 024°40'714.2
2017-Jun-15 16:01N 59°57' E 024°50'714.7
2017-Jun-15 15:31N 60°03' E 024°57'611.9
2017-Jun-15 15:00N 60°09' E 024°60'2 3.4
2017-Jun-15 14:31N 60°10' E 024°58'0 0.0
2017-Jun-15 13:28N 60°10' E 024°58'0 0.0
2017-Jun-15 12:58N 60°10' E 024°58'0 0.0
2017-Jun-15 12:30N 60°10' E 024°58'0 0.0
2017-Jun-15 11:59N 60°10' E 024°58'0 0.0
2017-Jun-15 11:28N 60°10' E 024°58'0 0.0
2017-Jun-15 11:00N 60°10' E 024°58'0 0.0
2017-Jun-15 10:28N 60°10' E 024°58'0 0.0
2017-Jun-15 09:58N 60°10' E 024°58'43 5.0
2017-Jun-15 01:22N 59°60' E 026°21'615.5
2017-Jun-15 00:57N 60°01' E 026°34'715.3
2017-Jun-15 00:29N 60°01' E 026°48'815.3
2017-Jun-14 23:57N 60°00' E 027°04'715.6
2017-Jun-14 23:30N 60°03' E 027°16'815.6
2017-Jun-14 23:00N 60°07' E 027°30'815.5
2017-Jun-14 22:31N 60°11' E 027°43'714.8
2017-Jun-14 22:00N 60°10' E 027°58'815.6
2017-Jun-14 21:30N 60°08' E 028°13'815.1
2017-Jun-14 21:00N 60°04' E 028°26'815.2
2017-Jun-14 20:30N 60°03' E 028°41'815.3
2017-Jun-14 20:00N 60°03' E 028°57'2913.2
2017-Jun-14 17:47N 59°56' E 029°54'412.7
2017-Jun-14 17:30N 59°55' E 030°01'510.1
2017-Jun-14 17:00N 59°53' E 030°10'3 6.1
2017-Jun-14 16:30N 59°55' E 030°15'1 3.0
2017-Jun-14 16:00N 59°56' E 030°17'0 0.0
2017-Jun-14 15:30N 59°56' E 030°17'0 0.0
2017-Jun-14 15:00N 59°56' E 030°17'0 0.0
2017-Jun-14 14:00N 59°56' E 030°17'0 0.0
2017-Jun-14 13:30N 59°56' E 030°17'0 0.0
2017-Jun-14 13:00N 59°56' E 030°17'0 0.0
2017-Jun-14 12:30N 59°56' E 030°17'0 0.0
2017-Jun-14 11:57N 59°56' E 030°17'0 0.0
2017-Jun-14 11:30N 59°56' E 030°17'0 0.0
2017-Jun-14 11:00N 59°56' E 030°17'0 0.0
2017-Jun-14 10:30N 59°56' E 030°17'0 0.0
2017-Jun-14 10:00N 59°56' E 030°17'0 0.0
2017-Jun-14 09:30N 59°56' E 030°17'0 0.0
2017-Jun-14 09:00N 59°56' E 030°17'0 0.0
2017-Jun-14 08:24N 59°56' E 030°17'0 0.0
2017-Jun-14 08:00N 59°56' E 030°17'0 0.0
2017-Jun-14 07:30N 59°56' E 030°17'0 0.0
2017-Jun-14 07:00N 59°56' E 030°17'0 0.0
2017-Jun-14 06:30N 59°56' E 030°17'0 0.0
2017-Jun-14 06:00N 59°56' E 030°17'0 0.0
2017-Jun-14 05:30N 59°56' E 030°17'0 0.0
2017-Jun-14 05:00N 59°56' E 030°17'0 0.0
2017-Jun-14 04:30N 59°56' E 030°17'0 0.0
2017-Jun-14 03:57N 59°56' E 030°17'0 0.0
2017-Jun-14 03:30N 59°56' E 030°17'0 0.0
2017-Jun-14 03:00N 59°56' E 030°17'0 0.0
2017-Jun-14 02:30N 59°56' E 030°17'0 0.0
2017-Jun-14 02:00N 59°56' E 030°17'0 0.0
2017-Jun-14 01:30N 59°56' E 030°17'0 0.0
2017-Jun-14 01:00N 59°56' E 030°17'0 0.0
2017-Jun-14 00:30N 59°56' E 030°17'0 0.0
2017-Jun-14 00:00N 59°56' E 030°17'0 0.0
2017-Jun-13 23:30N 59°56' E 030°17'0 0.0
2017-Jun-13 23:00N 59°56' E 030°17'0 0.0
2017-Jun-13 22:30N 59°56' E 030°17'0 0.0
2017-Jun-13 22:00N 59°56' E 030°17'0 0.0
2017-Jun-13 21:30N 59°56' E 030°17'0 0.0
2017-Jun-13 21:00N 59°56' E 030°17'0 0.0
2017-Jun-13 20:30N 59°56' E 030°17'  
Track history (hours):
 
Tides and Currents Weather Stations Pressure Air Temp Water Temp Dewpoint Dewpoint Depression Visibility Wind Speed Wind Dir Waves Ship Positions

Le Boreal

Last reported at 2017-Jun-23 20:30 UTC. Time now 2017-Jun-23 20:37 UTC.
Position N 61°56' E 005°07'.

Length 140 m; draft 5 m.

Type: Passenger vessel. MMSI: 578000500.

Date/timePositionNaut miles runAvg speedWind from/ knotsBaromVisibWave heightAir tempDewpointWater temp
2017-Jun-23 20:30N 61°56' E 005°07'5 9.1
2017-Jun-23 20:00N 61°54' E 005°16'612.7
2017-Jun-23 19:30N 61°55' E 005°29'713.0
2017-Jun-23 19:00N 61°53' E 005°43'1 0.1
2017-Jun-23 05:39N 61°54' E 005°41'1 9.6
2017-Jun-23 05:30N 61°54' E 005°38'5 9.6
2017-Jun-23 05:00N 61°55' E 005°28'5 9.1
2017-Jun-23 04:30N 61°54' E 005°19'4 8.4
2017-Jun-23 04:01N 61°53' E 005°10'4 7.3
2017-Jun-23 03:30N 61°50' E 005°16'510.0
2017-Jun-23 03:00N 61°48' E 005°07'510.1
2017-Jun-23 02:30N 61°44' E 004°59'5 9.5
2017-Jun-23 02:00N 61°39' E 004°59'5 9.1
2017-Jun-23 01:30N 61°35' E 004°57'4 8.6
2017-Jun-23 01:00N 61°31' E 005°00'4 8.9
2017-Jun-23 00:30N 61°27' E 004°56'5 9.6
2017-Jun-23 00:00N 61°23' E 004°50'5 9.7
2017-Jun-22 23:30N 61°18' E 004°48'5 9.3
2017-Jun-22 23:00N 61°15' E 004°54'5 9.6
2017-Jun-22 22:30N 61°11' E 005°01'510.0
2017-Jun-22 22:00N 61°08' E 005°08'4 8.7
2017-Jun-22 21:30N 61°04' E 005°02'5 9.4
2017-Jun-22 21:00N 61°02' E 004°54'5 9.7
2017-Jun-22 20:30N 60°59' E 004°46'611.8
2017-Jun-22 20:00N 60°54' E 004°41'612.4
2017-Jun-22 19:30N 60°48' E 004°44'612.8
2017-Jun-22 19:01N 60°42' E 004°50'712.9
2017-Jun-22 18:30N 60°36' E 004°54'713.0
2017-Jun-22 18:00N 60°30' E 004°59'612.6
2017-Jun-22 17:30N 60°25' E 005°06'510.1
2017-Jun-22 17:00N 60°24' E 005°16'1 2.5
2017-Jun-22 16:30N 60°24' E 005°19'0 0.0
2017-Jun-22 16:00N 60°24' E 005°19'0 0.0
2017-Jun-22 15:27N 60°24' E 005°19'0 0.0
2017-Jun-22 15:00N 60°24' E 005°19'0 0.0
2017-Jun-22 14:27N 60°24' E 005°19'0 0.0
2017-Jun-22 13:30N 60°24' E 005°19'0 0.0
2017-Jun-22 13:00N 60°24' E 005°19'0 0.0
2017-Jun-22 12:30N 60°24' E 005°19'0 0.0
2017-Jun-22 12:00N 60°24' E 005°19'0 0.0
2017-Jun-22 11:30N 60°24' E 005°19'0 0.0
2017-Jun-22 11:00N 60°24' E 005°19'0 0.0
2017-Jun-22 10:27N 60°24' E 005°19'0 0.0
2017-Jun-22 10:00N 60°24' E 005°19'0 0.0
2017-Jun-22 09:30N 60°24' E 005°19'0 0.0
2017-Jun-22 09:00N 60°24' E 005°19'0 0.0
2017-Jun-22 08:30N 60°24' E 005°19'0 0.0
2017-Jun-22 08:00N 60°24' E 005°19'0 0.0
2017-Jun-22 07:30N 60°24' E 005°19'0 0.0
2017-Jun-22 07:00N 60°24' E 005°19'0 0.0
2017-Jun-22 06:30N 60°24' E 005°19'0 0.0
2017-Jun-22 06:00N 60°24' E 005°19'0 0.5
2017-Jun-22 05:30N 60°24' E 005°18'3 6.5
2017-Jun-22 05:00N 60°23' E 005°12'5 9.6
2017-Jun-22 04:30N 60°18' E 005°12'612.5
2017-Jun-22 04:00N 60°12' E 005°11'611.4
2017-Jun-22 03:30N 60°09' E 005°02'4 8.2
2017-Jun-22 03:00N 60°06' E 004°55'510.2
2017-Jun-22 02:30N 60°01' E 004°52'510.1
2017-Jun-22 02:00N 59°57' E 004°49'510.0
2017-Jun-22 01:30N 59°52' E 004°45'510.1
2017-Jun-22 01:00N 59°47' E 004°41'67 9.7
2017-Jun-21 18:03N 58°40' E 004°50'111.5
2017-Jun-21 18:00N 58°40' E 004°51'611.6
2017-Jun-21 17:30N 58°36' E 004°58'612.0
2017-Jun-21 17:00N 58°31' E 005°06'1112.0
2017-Jun-21 16:07N 58°23' E 005°20'112.1
2017-Jun-21 16:00N 58°22' E 005°22'611.8
2017-Jun-21 15:30N 58°18' E 005°30'611.7
2017-Jun-21 15:00N 58°15' E 005°38'611.7
2017-Jun-21 14:30N 58°11' E 005°47'1311.5
2017-Jun-21 13:23N 58°03' E 006°06'511.6
2017-Jun-21 13:00N 57°60' E 006°12'511.0
2017-Jun-21 12:30N 57°56' E 006°20'510.5
2017-Jun-21 12:00N 57°53' E 006°27'510.5
2017-Jun-21 11:30N 57°50' E 006°35'510.5
2017-Jun-21 11:00N 57°49' E 006°45'510.7
2017-Jun-21 10:30N 57°48' E 006°55'11411.8
2017-Jun-21 00:48N 57°49' E 010°29'412.6
2017-Jun-21 00:30N 57°49' E 010°36'611.4
2017-Jun-21 00:00N 57°47' E 010°47'713.4
2017-Jun-20 23:30N 57°41' E 010°47'714.1
2017-Jun-20 23:00N 57°34' E 010°45'714.5
2017-Jun-20 22:30N 57°26' E 010°44'31 7.7
2017-Jun-20 18:24N 56°59' E 010°15'612.4
2017-Jun-20 17:57N 57°02' E 010°07'511.1
2017-Jun-20 17:31N 57°05' E 009°59'3 5.2
2017-Jun-20 17:00N 57°03' E 009°55'0 0.0
2017-Jun-20 16:29N 57°03' E 009°55'0 0.0
2017-Jun-20 15:47N 57°03' E 009°55'0 0.0
2017-Jun-20 15:23N 57°03' E 009°55'0 0.0
2017-Jun-20 14:59N 57°03' E 009°55'0 0.0
2017-Jun-20 14:23N 57°03' E 009°55'0 0.0
2017-Jun-20 13:29N 57°03' E 009°55'0 0.0
2017-Jun-20 12:53N 57°03' E 009°55'0 0.0
2017-Jun-20 12:29N 57°03' E 009°55'0 0.0
2017-Jun-20 11:53N 57°03' E 009°55'0 0.0
2017-Jun-20 11:29N 57°03' E 009°55'0 0.0
2017-Jun-20 11:00N 57°03' E 009°55'1 2.2
2017-Jun-20 10:30N 57°03' E 009°57'4 7.3
2017-Jun-20 10:00N 57°03' E 010°04'612.5
2017-Jun-20 09:29N 56°59' E 010°13'87 9.0
2017-Jun-19 23:51N 56°11' E 012°24'310.0
2017-Jun-19 23:30N 56°09' E 012°29'611.1
2017-Jun-19 23:00N 56°05' E 012°37'713.8
2017-Jun-19 22:30N 55°59' E 012°42'714.1
2017-Jun-19 22:01N 55°52' E 012°45'713.4
2017-Jun-19 21:30N 55°46' E 012°41'4 8.9
2017-Jun-19 21:00N 55°42' E 012°36'1 1.2
2017-Jun-19 20:30N 55°41' E 012°36'0 0.0
2017-Jun-19 19:59N 55°41' E 012°36'0 0.0
2017-Jun-19 19:29N 55°41' E 012°36'0 0.0
2017-Jun-19 18:59N 55°41' E 012°36'0 0.0
2017-Jun-19 18:29N 55°41' E 012°36'0 0.0
2017-Jun-19 17:59N 55°41' E 012°36'0 0.0
2017-Jun-19 17:29N 55°41' E 012°36'0 0.0
2017-Jun-19 16:59N 55°41' E 012°36'0 0.0
2017-Jun-19 16:29N 55°41' E 012°36'0 0.0
2017-Jun-19 15:59N 55°41' E 012°36'0 0.0
2017-Jun-19 15:29N 55°41' E 012°36'0 0.0
2017-Jun-19 14:59N 55°41' E 012°36'0 0.0
2017-Jun-19 13:59N 55°41' E 012°36'0 0.0
2017-Jun-19 13:29N 55°41' E 012°36'0 0.0
2017-Jun-19 12:59N 55°41' E 012°36'0 0.0
2017-Jun-19 12:29N 55°41' E 012°36'0 0.0
2017-Jun-19 11:59N 55°41' E 012°36'0 0.0
2017-Jun-19 11:29N 55°41' E 012°36'0 0.0
2017-Jun-19 10:59N 55°41' E 012°36'0 0.0
2017-Jun-19 10:29N 55°41' E 012°36'0 0.0
2017-Jun-19 09:59N 55°41' E 012°36'0 0.0
2017-Jun-19 09:29N 55°41' E 012°36'0 0.0
2017-Jun-19 08:59N 55°41' E 012°36'0 1.0
2017-Jun-19 08:30N 55°42' E 012°36'2 3.9
2017-Jun-19 08:00N 55°43' E 012°39'5 9.1
2017-Jun-19 07:30N 55°39' E 012°42'612.3
2017-Jun-19 07:00N 55°33' E 012°43'612.9
2017-Jun-19 06:30N 55°26' E 012°42'713.6
2017-Jun-19 06:00N 55°20' E 012°41'612.3
2017-Jun-19 05:30N 55°16' E 012°50'713.2
2017-Jun-19 05:00N 55°15' E 013°01'713.2
2017-Jun-19 04:30N 55°15' E 013°13'613.1
2017-Jun-19 04:00N 55°15' E 013°24'713.1
2017-Jun-19 03:30N 55°14' E 013°36'714.7
2017-Jun-19 03:00N 55°14' E 013°49'815.2
2017-Jun-19 02:30N 55°13' E 014°02'815.3
2017-Jun-19 02:01N 55°14' E 014°15'815.0
2017-Jun-19 01:31N 55°19' E 014°25'815.2
2017-Jun-19 01:00N 55°25' E 014°34'815.1
2017-Jun-19 00:30N 55°29' E 014°45'815.4
2017-Jun-19 00:00N 55°33' E 014°56'815.3
2017-Jun-18 23:30N 55°37' E 015°08'715.0
2017-Jun-18 23:01N 55°40' E 015°20'714.8
2017-Jun-18 22:31N 55°44' E 015°31'815.0
2017-Jun-18 22:01N 55°48' E 015°43'815.1
2017-Jun-18 21:31N 55°52' E 015°54'714.9
2017-Jun-18 21:00N 55°56' E 016°05'714.9
2017-Jun-18 20:30N 55°60' E 016°16'715.0
2017-Jun-18 20:00N 56°04' E 016°28'815.2
2017-Jun-18 19:31N 56°08' E 016°39'714.8
2017-Jun-18 19:00N 56°14' E 016°47'98 8.0
2017-Jun-18 06:49N 57°38' E 018°17'0 0.5
2017-Jun-18 06:30N 57°38' E 018°17'1 1.9
2017-Jun-18 06:01N 57°38' E 018°15'4 8.1
2017-Jun-18 05:30N 57°42' E 018°17'611.1
2017-Jun-18 04:57N 57°48' E 018°21'5311.8
2017-Jun-18 00:28N 58°38' E 018°54'612.6
2017-Jun-18 00:00N 58°43' E 018°57'612.3
2017-Jun-17 23:30N 58°49' E 019°01'612.3
2017-Jun-17 23:00N 58°55' E 019°05'612.4
2017-Jun-17 22:31N 59°01' E 019°09'612.5
2017-Jun-17 22:01N 59°07' E 019°12'611.5
2017-Jun-17 21:30N 59°12' E 019°10'712.2
2017-Jun-17 20:58N 59°16' E 018°60'2110.8
2017-Jun-17 19:01N 59°26' E 018°24'011.2
2017-Jun-17 19:00N 59°26' E 018°24'5 9.8
2017-Jun-17 18:30N 59°21' E 018°26'5 9.5
2017-Jun-17 18:00N 59°22' E 018°17'510.6
2017-Jun-17 17:30N 59°19' E 018°08'1 2.2
2017-Jun-17 16:55N 59°19' E 018°05'0 0.0
2017-Jun-17 16:25N 59°19' E 018°05'0 0.0
2017-Jun-17 15:55N 59°19' E 018°05'0 0.0
2017-Jun-17 15:13N 59°19' E 018°05'0 0.0
2017-Jun-17 14:55N 59°19' E 018°05'0 0.0
2017-Jun-17 13:58N 59°19' E 018°05'0 0.0
2017-Jun-17 13:25N 59°19' E 018°05'0 0.0
2017-Jun-17 12:58N 59°19' E 018°05'0 0.0
2017-Jun-17 12:25N 59°19' E 018°05'0 0.0
2017-Jun-17 11:55N 59°19' E 018°05'0 0.0
2017-Jun-17 11:25N 59°19' E 018°05'0 0.0
2017-Jun-17 10:55N 59°19' E 018°05'0 0.0
2017-Jun-17 10:25N 59°19' E 018°05'0 0.0
2017-Jun-17 09:55N 59°19' E 018°05'0 0.0
2017-Jun-17 09:25N 59°19' E 018°05'0 0.0
2017-Jun-17 08:58N 59°19' E 018°05'0 0.0
2017-Jun-17 08:19N 59°19' E 018°05'0 0.0
2017-Jun-17 07:55N 59°19' E 018°05'0 0.0
2017-Jun-17 07:25N 59°19' E 018°05'0 0.0
2017-Jun-17 06:55N 59°19' E 018°05'0 0.0
2017-Jun-17 06:25N 59°19' E 018°05'0 0.0
2017-Jun-17 05:55N 59°19' E 018°05'0 0.0
2017-Jun-17 05:25N 59°19' E 018°05'0 0.0
2017-Jun-17 04:49N 59°19' E 018°05'0 0.3
2017-Jun-17 04:30N 59°19' E 018°05'3 5.3
2017-Jun-17 04:00N 59°19' E 018°11'510.5
2017-Jun-17 03:30N 59°23' E 018°19'4 8.2
2017-Jun-17 03:00N 59°23' E 018°27'4 8.1
2017-Jun-17 02:31N 59°27' E 018°25'611.5
2017-Jun-17 02:01N 59°23' E 018°34'611.5
2017-Jun-17 01:31N 59°22' E 018°45'510.7
2017-Jun-17 01:01N 59°18' E 018°52'4 7.1
2017-Jun-17 00:31N 59°16' E 018°58'510.5
2017-Jun-17 00:01N 59°13' E 019°06'713.3
2017-Jun-16 23:30N 59°09' E 019°17'5 9.6
2017-Jun-16 23:00N 59°04' E 019°17'612.8
2017-Jun-16 22:31N 59°00' E 019°08'713.4
2017-Jun-16 21:59N 58°54' E 019°04'713.4
2017-Jun-16 21:29N 58°47' E 018°60'613.3
2017-Jun-16 21:00N 58°41' E 018°56'714.2
2017-Jun-16 20:31N 58°35' E 018°51'32 2.3
2017-Jun-16 06:22N 58°02' E 018°53'615.5
2017-Jun-16 06:00N 58°04' E 019°03'915.2
2017-Jun-16 05:26N 58°08' E 019°18'715.3
2017-Jun-16 04:57N 58°12' E 019°28'815.5
2017-Jun-16 04:26N 58°18' E 019°40'715.3
2017-Jun-16 04:00N 58°22' E 019°50'815.5
2017-Jun-16 03:30N 58°27' E 020°01'815.5
2017-Jun-16 03:00N 58°32' E 020°12'815.6
2017-Jun-16 02:30N 58°37' E 020°24'815.6
2017-Jun-16 02:00N 58°42' E 020°35'815.6
2017-Jun-16 01:30N 58°47' E 020°47'815.3
2017-Jun-16 01:00N 58°52' E 020°58'815.1
2017-Jun-16 00:30N 58°57' E 021°09'815.4
2017-Jun-16 00:01N 59°01' E 021°21'815.3
2017-Jun-15 23:30N 59°06' E 021°32'815.3
2017-Jun-15 23:00N 59°11' E 021°44'815.3
2017-Jun-15 22:30N 59°16' E 021°55'815.1
2017-Jun-15 22:00N 59°20' E 022°07'815.1
2017-Jun-15 21:30N 59°25' E 022°20'815.3
2017-Jun-15 21:01N 59°29' E 022°32'815.5
2017-Jun-15 20:30N 59°31' E 022°46'815.4
2017-Jun-15 20:01N 59°34' E 023°01'815.2
2017-Jun-15 19:30N 59°36' E 023°15'815.4
2017-Jun-15 19:00N 59°39' E 023°29'815.2
2017-Jun-15 18:31N 59°41' E 023°44'815.1
2017-Jun-15 18:00N 59°43' E 023°58'815.1
2017-Jun-15 17:30N 59°46' E 024°12'815.1
2017-Jun-15 17:00N 59°48' E 024°27'815.2
2017-Jun-15 16:30N 59°51' E 024°40'714.2
2017-Jun-15 16:01N 59°57' E 024°50'714.7
2017-Jun-15 15:31N 60°03' E 024°57'611.9
2017-Jun-15 15:00N 60°09' E 024°60'2 3.4
2017-Jun-15 14:31N 60°10' E 024°58'0 0.0
2017-Jun-15 13:28N 60°10' E 024°58'0 0.0
2017-Jun-15 12:58N 60°10' E 024°58'0 0.0
2017-Jun-15 12:30N 60°10' E 024°58'0 0.0
2017-Jun-15 11:59N 60°10' E 024°58'0 0.0
2017-Jun-15 11:28N 60°10' E 024°58'0 0.0
2017-Jun-15 11:00N 60°10' E 024°58'0 0.0
2017-Jun-15 10:28N 60°10' E 024°58'0 0.0
2017-Jun-15 09:58N 60°10' E 024°58'43 5.0
2017-Jun-15 01:22N 59°60' E 026°21'615.5
2017-Jun-15 00:57N 60°01' E 026°34'715.3
2017-Jun-15 00:29N 60°01' E 026°48'815.3
2017-Jun-14 23:57N 60°00' E 027°04'715.6
2017-Jun-14 23:30N 60°03' E 027°16'815.6
2017-Jun-14 23:00N 60°07' E 027°30'815.5
2017-Jun-14 22:31N 60°11' E 027°43'714.8
2017-Jun-14 22:00N 60°10' E 027°58'815.6
2017-Jun-14 21:30N 60°08' E 028°13'815.1
2017-Jun-14 21:00N 60°04' E 028°26'815.2
2017-Jun-14 20:30N 60°03' E 028°41'815.3
2017-Jun-14 20:00N 60°03' E 028°57'2913.2
2017-Jun-14 17:47N 59°56' E 029°54'412.7
2017-Jun-14 17:30N 59°55' E 030°01'510.1
2017-Jun-14 17:00N 59°53' E 030°10'3 6.1
2017-Jun-14 16:30N 59°55' E 030°15'1 3.0
2017-Jun-14 16:00N 59°56' E 030°17'0 0.0
2017-Jun-14 15:30N 59°56' E 030°17'0 0.0
2017-Jun-14 15:00N 59°56' E 030°17'0 0.0
2017-Jun-14 14:00N 59°56' E 030°17'0 0.0
2017-Jun-14 13:30N 59°56' E 030°17'0 0.0
2017-Jun-14 13:00N 59°56' E 030°17'0 0.0
2017-Jun-14 12:30N 59°56' E 030°17'0 0.0
2017-Jun-14 11:57N 59°56' E 030°17'0 0.0
2017-Jun-14 11:30N 59°56' E 030°17'0 0.0
2017-Jun-14 11:00N 59°56' E 030°17'0 0.0
2017-Jun-14 10:30N 59°56' E 030°17'0 0.0
2017-Jun-14 10:00N 59°56' E 030°17'0 0.0
2017-Jun-14 09:30N 59°56' E 030°17'0 0.0
2017-Jun-14 09:00N 59°56' E 030°17'0 0.0
2017-Jun-14 08:24N 59°56' E 030°17'0 0.0
2017-Jun-14 08:00N 59°56' E 030°17'0 0.0
2017-Jun-14 07:30N 59°56' E 030°17'0 0.0
2017-Jun-14 07:00N 59°56' E 030°17'0 0.0
2017-Jun-14 06:30N 59°56' E 030°17'0 0.0
2017-Jun-14 06:00N 59°56' E 030°17'0 0.0
2017-Jun-14 05:30N 59°56' E 030°17'0 0.0
2017-Jun-14 05:00N 59°56' E 030°17'0 0.0
2017-Jun-14 04:30N 59°56' E 030°17'0 0.0
2017-Jun-14 03:57N 59°56' E 030°17'0 0.0
2017-Jun-14 03:30N 59°56' E 030°17'0 0.0
2017-Jun-14 03:00N 59°56' E 030°17'0 0.0
2017-Jun-14 02:30N 59°56' E 030°17'0 0.0
2017-Jun-14 02:00N 59°56' E 030°17'0 0.0
2017-Jun-14 01:30N 59°56' E 030°17'0 0.0
2017-Jun-14 01:00N 59°56' E 030°17'0 0.0
2017-Jun-14 00:30N 59°56' E 030°17'0 0.0
2017-Jun-14 00:00N 59°56' E 030°17'0 0.0
2017-Jun-13 23:30N 59°56' E 030°17'0 0.0
2017-Jun-13 23:00N 59°56' E 030°17'0 0.0
2017-Jun-13 22:30N 59°56' E 030°17'0 0.0
2017-Jun-13 22:00N 59°56' E 030°17'0 0.0
2017-Jun-13 21:30N 59°56' E 030°17'0 0.0
2017-Jun-13 21:00N 59°56' E 030°17'0 0.0
2017-Jun-13 20:30N 59°56' E 030°17'  

Dump ship's entire track history